Terminal Aerodrome Forecast
Issued by NWS

Home | Current Version | Previous Version | Text Only | Print | Product List | Glossary On
Versions: 1 2 3 4 5 6 7 8 9 10 11 12 13 14
000
FTUS44 KLZK 310500
TAFBPK
TAF
KBPK 310540Z 3106/0106 00000KT 6SM BR SCT005 OVC025
      TEMPO 3109/3113 2SM -RA BR BKN005
     FM311300 12005KT 5SM -RA BR OVC015
      TEMPO 3113/3116 3SM -RA BR OVC005
     FM311600 18005KT P6SM -RA SCT020 OVC040 PROB30 3116/3122 4SM
      -RA BR OVC025
     FM010000 15003KT P6SM OVC040=

USA.gov is the U.S. government's official web portal to all federal, state and local government web resources and services.